Time,TemperatureF,DewpointF,PressureIn,WindDirection,WindDirectionDegrees,WindSpeedMPH,WindSpeedGustMPH,Humidity,HourlyPrecipIn,Conditions,Clouds,dailyrainin,SoftwareType,DateUTC
2013-05-01 00:03:00,62.0,-99.9,30.11,North,-999,-999.0,-999.0,-999,-99.99,,,-99.99,,2013-05-01 04:03:00,
2013-05-01 00:12:00,-999.0,-99.9,30.11,NE,36,3.0,4.0,-999,-99.99,,,-99.99,,2013-05-01 04:12:00,
2013-05-01 00:23:00,-999.0,-99.9,30.10,NNE,23,4.0,5.0,-999,-99.99,,,-99.99,,2013-05-01 04:23:00,
2013-05-01 00:32:00,61.0,-99.9,30.11,North,-999,-999.0,-999.0,-999,-99.99,,,-99.99,,2013-05-01 04:32:00,
2013-05-01 00:43:00,61.0,-99.9,30.11,North,-999,-999.0,-999.0,-999,-99.99,,,-99.99,,2013-05-01 04:43:00,
2013-05-01 00:52:00,61.0,-99.9,30.11,North,-999,-999.0,-999.0,-999,-99.99,,,-99.99,,2013-05-01 04:52:00,
2013-05-01 01:02:00,61.0,-99.9,30.11,North,-999,-999.0,-999.0,-999,-99.99,,,-99.99,,2013-05-01 05:02:00,
2013-05-01 01:12:00,61.0,-99.9,30.11,North,-999,-999.0,-999.0,-999,-99.99,,,-99.99,,2013-05-01 05:12:00,
2013-05-01 01:22:00,-999.0,-99.9,30.11,North,11,7.0,9.0,-999,-99.99,,,-99.99,,2013-05-01 05:22:00,
2013-05-01 01:32:00,-999.0,-99.9,30.11,NNE,13,7.0,9.0,-999,-99.99,,,-99.99,,2013-05-01 05:32:00,
2013-05-01 01:42:00,61.0,-99.9,30.12,NNE,16,8.0,11.0,-999,-99.99,,,-99.99,,2013-05-01 05:42:00,
2013-05-01 01:52:00,61.0,-99.9,30.12,North,-999,-999.0,-999.0,-999,-99.99,,,-99.99,,2013-05-01 05:52:00,
2013-05-01 02:02:00,-999.0,-99.9,30.11,North,5,10.0,11.0,-999,-99.99,,,-99.99,,2013-05-01 06:02:00,
2013-05-01 02:12:00,-999.0,-99.9,30.11,North,7,9.0,14.0,-999,-99.99,,,-99.99,,2013-05-01 06:12:00,
2013-05-01 02:22:00,62.0,-99.9,30.11,North,-999,-999.0,-999.0,-999,-99.99,,,-99.99,,2013-05-01 06:22:00,
2013-05-01 02:32:00,62.0,-99.9,30.11,North,-999,-999.0,-999.0,-999,-99.99,,,-99.99,,2013-05-01 06:32:00,
2013-05-01 02:42:00,61.0,-99.9,30.10,NNE,25,8.0,14.0,-999,-99.99,,,-99.99,,2013-05-01 06:42:00,
2013-05-01 02:52:00,61.0,-99.9,30.10,North,-999,-999.0,-999.0,-999,-99.99,,,-99.99,,2013-05-01 06:52:00,
2013-05-01 03:01:00,-999.0,-99.9,30.10,NE,39,8.0,10.0,-999,-99.99,,,-99.99,,2013-05-01 07:01:00,
2013-05-01 03:11:00,61.0,-99.9,30.10,North,-999,-999.0,-999.0,-999,-99.99,,,-99.99,,2013-05-01 07:11:00,
2013-05-01 03:22:00,61.0,-99.9,30.09,North,-999,-999.0,-999.0,-999,-99.99,,,-99.99,,2013-05-01 07:22:00,
2013-05-01 03:32:00,61.0,-99.9,30.09,North,-999,-999.0,-999.0,-999,-99.99,,,-99.99,,2013-05-01 07:32:00,
2013-05-01 03:42:00,61.0,-99.9,30.09,North,-999,-999.0,-999.0,-999,-99.99,,,-99.99,,2013-05-01 07:42:00,
2013-05-01 03:52:00,-999.0,-99.9,30.09,NNE,17,7.0,12.0,-999,-99.99,,,-99.99,,2013-05-01 07:52:00,
2013-05-01 04:02:00,61.0,-99.9,30.10,North,-999,-999.0,-999.0,-999,-99.99,,,-99.99,,2013-05-01 08:02:00,
2013-05-01 04:12:00,61.0,-99.9,30.10,NNE,14,9.0,11.0,-999,-99.99,,,-99.99,,2013-05-01 08:12:00,
2013-05-01 04:22:00,-999.0,-99.9,30.10,NNE,19,8.0,10.0,-999,-99.99,,,-99.99,,2013-05-01 08:22:00,
2013-05-01 04:32:00,61.0,-99.9,30.10,North,-999,-999.0,-999.0,-999,-99.99,,,-99.99,,2013-05-01 08:32:00,
2013-05-01 04:42:00,61.0,-99.9,30.10,North,-999,-999.0,-999.0,-999,-99.99,,,-99.99,,2013-05-01 08:42:00,
2013-05-01 04:53:00,-999.0,-99.9,30.10,NNE,14,6.0,9.0,-999,-99.99,,,-99.99,,2013-05-01 08:53:00,
2013-05-01 05:02:00,61.0,-99.9,30.10,North,-999,-999.0,-999.0,-999,-99.99,,,-99.99,,2013-05-01 09:02:00,
2013-05-01 05:12:00,61.0,-99.9,30.10,North,8,6.0,8.0,-999,-99.99,,,-99.99,,2013-05-01 09:12:00,
2013-05-01 05:22:00,-999.0,-99.9,30.10,North,8,6.0,7.0,-999,-99.99,,,-99.99,,2013-05-01 09:22:00,
2013-05-01 05:33:00,-999.0,-99.9,30.10,North,10,7.0,9.0,-999,-99.99,,,-99.99,,2013-05-01 09:33:00,
2013-05-01 05:43:00,61.0,-99.9,30.10,North,-999,-999.0,-999.0,-999,-99.99,,,-99.99,,2013-05-01 09:43:00,
2013-05-01 05:53:00,-999.0,-99.9,30.10,North,7,7.0,10.0,-999,-99.99,,,-99.99,,2013-05-01 09:53:00,
2013-05-01 06:03:00,61.0,-99.9,30.10,North,-999,-999.0,-999.0,-999,-99.99,,,-99.99,,2013-05-01 10:03:00,
2013-05-01 06:12:00,61.0,-99.9,30.10,North,-999,-999.0,-999.0,-999,-99.99,,,-99.99,,2013-05-01 10:12:00,
2013-05-01 06:22:00,61.0,-99.9,30.11,North,-999,-999.0,-999.0,-999,-99.99,,,-99.99,,2013-05-01 10:22:00,
2013-05-01 06:33:00,61.0,-99.9,30.11,North,-999,-999.0,-999.0,-999,-99.99,,,-99.99,,2013-05-01 10:33:00,
2013-05-01 06:42:00,61.0,-99.9,30.11,North,-999,-999.0,-999.0,-999,-99.99,,,-99.99,,2013-05-01 10:42:00,
2013-05-01 06:53:00,61.0,-99.9,30.11,North,-999,-999.0,-999.0,-999,-99.99,,,-99.99,,2013-05-01 10:53:00,
2013-05-01 07:03:00,-999.0,-99.9,30.12,North,356,8.0,11.0,-999,-99.99,,,-99.99,,2013-05-01 11:03:00,
2013-05-01 07:11:00,62.0,-99.9,30.12,North,-999,8.0,11.0,-999,-99.99,,,-99.99,,2013-05-01 11:11:00,
2013-05-01 07:22:00,61.0,-99.9,30.12,North,-999,-999.0,-999.0,-999,-99.99,,,-99.99,,2013-05-01 11:22:00,
2013-05-01 07:32:00,61.0,-99.9,30.13,North,-999,-999.0,-999.0,-999,-99.99,,,-99.99,,2013-05-01 11:32:00,
2013-05-01 07:42:00,61.0,-99.9,30.14,North,4,10.0,14.0,-999,-99.99,,,-99.99,,2013-05-01 11:42:00,
2013-05-01 07:52:00,-999.0,-99.9,30.14,North,5,12.0,13.0,-999,-99.99,,,-99.99,,2013-05-01 11:52:00,
2013-05-01 08:02:00,61.0,-99.9,30.14,North,-999,-999.0,-999.0,-999,-99.99,,,-99.99,,2013-05-01 12:02:00,
2013-05-01 08:11:00,61.0,-99.9,30.14,North,-999,-999.0,-999.0,-999,-99.99,,,-99.99,,2013-05-01 12:11:00,
2013-05-01 08:22:00,-999.0,-99.9,30.13,North,8,9.0,13.0,-999,-99.99,,,-99.99,,2013-05-01 12:22:00,
2013-05-01 08:32:00,-999.0,-99.9,30.14,NNE,12,9.0,11.0,-999,-99.99,,,-99.99,,2013-05-01 12:32:00,
2013-05-01 08:42:00,62.0,-99.9,30.14,North,5,12.0,15.0,-999,-99.99,,,-99.99,,2013-05-01 12:42:00,
2013-05-01 08:52:00,62.0,-99.9,30.14,North,-999,-999.0,-999.0,-999,-99.99,,,-99.99,,2013-05-01 12:52:00,
2013-05-01 09:02:00,63.0,-99.9,30.15,North,-999,-999.0,-999.0,-999,-99.99,,,-99.99,,2013-05-01 13:02:00,
2013-05-01 09:11:00,-999.0,-99.9,30.15,NNE,28,11.0,16.0,-999,-99.99,,,-99.99,,2013-05-01 13:11:00,
2013-05-01 09:22:00,-999.0,-99.9,30.15,NNE,25,14.0,18.0,-999,-99.99,,,-99.99,,2013-05-01 13:22:00,
2013-05-01 09:32:00,-999.0,-99.9,30.15,North,11,14.0,17.0,-999,-99.99,,,-99.99,,2013-05-01 13:32:00,
2013-05-01 09:42:00,64.0,-99.9,30.15,NNE,15,13.0,18.0,-999,-99.99,,,-99.99,,2013-05-01 13:42:00,
2013-05-01 09:52:00,64.0,-99.9,30.15,North,-999,-999.0,-999.0,-999,-99.99,,,-99.99,,2013-05-01 13:52:00,
2013-05-01 10:02:00,65.0,-99.9,30.16,NNE,20,9.0,19.0,-999,-99.99,,,-99.99,,2013-05-01 14:02:00,
2013-05-01 10:11:00,64.0,-99.9,30.16,North,-999,-999.0,-999.0,-999,-99.99,,,-99.99,,2013-05-01 14:11:00,
2013-05-01 10:22:00,64.0,-99.9,30.16,North,-999,-999.0,-999.0,-999,-99.99,,,-99.99,,2013-05-01 14:22:00,
2013-05-01 10:32:00,-999.0,-99.9,30.16,North,11,14.0,19.0,-999,-99.99,,,-99.99,,2013-05-01 14:32:00,
2013-05-01 10:42:00,65.0,-99.9,30.16,North,-999,-999.0,-999.0,-999,-99.99,,,-99.99,,2013-05-01 14:42:00,
2013-05-01 10:52:00,-999.0,-99.9,30.17,NNE,19,15.0,18.0,-999,-99.99,,,-99.99,,2013-05-01 14:52:00,
2013-05-01 11:01:00,66.0,-99.9,30.17,North,-999,-999.0,-999.0,-999,-99.99,,,-99.99,,2013-05-01 15:01:00,
2013-05-01 11:12:00,-999.0,-99.9,30.17,North,11,14.0,16.0,-999,-99.99,,,-99.99,,2013-05-01 15:12:00,
2013-05-01 11:22:00,66.0,-99.9,30.17,North,-999,-999.0,-999.0,-999,-99.99,,,-99.99,,2013-05-01 15:22:00,
2013-05-01 11:33:00,66.0,-99.9,30.17,North,-999,-999.0,-999.0,-999,-99.99,,,-99.99,,2013-05-01 15:33:00,
2013-05-01 11:43:00,66.0,-99.9,30.17,North,-999,-999.0,-999.0,-999,-99.99,,,-99.99,,2013-05-01 15:43:00,
2013-05-01 11:53:00,66.0,-99.9,30.17,North,-999,-999.0,-999.0,-999,-99.99,,,-99.99,,2013-05-01 15:53:00,
2013-05-01 12:03:00,-999.0,-99.9,30.18,NNE,12,12.0,21.0,-999,-99.99,,,-99.99,,2013-05-01 16:03:00,
2013-05-01 12:12:00,67.0,-99.9,30.17,NNE,26,12.0,17.0,-999,-99.99,,,-99.99,,2013-05-01 16:12:00,
2013-05-01 12:22:00,-999.0,-99.9,30.18,NNE,23,12.0,17.0,-999,-99.99,,,-99.99,,2013-05-01 16:22:00,
2013-05-01 12:32:00,-999.0,-99.9,30.18,NNE,26,10.0,16.0,-999,-99.99,,,-99.99,,2013-05-01 16:32:00,
2013-05-01 12:42:00,-999.0,-99.9,30.18,NNE,28,9.0,14.0,-999,-99.99,,,-99.99,,2013-05-01 16:42:00,
2013-05-01 12:53:00,68.0,-99.9,30.18,North,-999,-999.0,-999.0,-999,-99.99,,,-99.99,,2013-05-01 16:53:00,
2013-05-01 13:02:00,-999.0,-99.9,30.18,NNE,16,13.0,19.0,-999,-99.99,,,-99.99,,2013-05-01 17:02:00,
2013-05-01 13:12:00,-999.0,-99.9,30.18,NE,35,9.0,15.0,-999,-99.99,,,-99.99,,2013-05-01 17:12:00,
2013-05-01 13:22:00,69.0,-99.9,30.19,North,-999,-999.0,-999.0,-999,-99.99,,,-99.99,,2013-05-01 17:22:00,
2013-05-01 13:32:00,68.0,-99.9,30.19,North,-999,-999.0,-999.0,-999,-99.99,,,-99.99,,2013-05-01 17:32:00,
2013-05-01 13:42:00,68.0,-99.9,30.19,North,-999,-999.0,-999.0,-999,-99.99,,,-99.99,,2013-05-01 17:42:00,
2013-05-01 13:52:00,-999.0,-99.9,30.19,NNE,33,10.0,18.0,-999,-99.99,,,-99.99,,2013-05-01 17:52:00,
2013-05-01 14:02:00,67.0,-99.9,30.19,North,-999,-999.0,-999.0,-999,-99.99,,,-99.99,,2013-05-01 18:02:00,
2013-05-01 14:12:00,-999.0,-99.9,30.19,NE,42,12.0,16.0,-999,-99.99,,,-99.99,,2013-05-01 18:12:00,
2013-05-01 14:22:00,-999.0,-99.9,30.19,NNE,31,11.0,17.0,-999,-99.99,,,-99.99,,2013-05-01 18:22:00,
2013-05-01 14:32:00,-999.0,-99.9,30.19,NNE,18,11.0,15.0,-999,-99.99,,,-99.99,,2013-05-01 18:32:00,
2013-05-01 14:42:00,66.0,-99.9,30.19,NNE,20,10.0,13.0,-999,-99.99,,,-99.99,,2013-05-01 18:42:00,
2013-05-01 14:52:00,-999.0,-99.9,30.18,North,9,14.0,16.0,-999,-99.99,,,-99.99,,2013-05-01 18:52:00,
2013-05-01 15:02:00,69.0,-99.9,30.18,North,-999,-999.0,-999.0,-999,-99.99,,,-99.99,,2013-05-01 19:02:00,
2013-05-01 15:12:00,69.0,-99.9,30.18,North,-999,-999.0,-999.0,-999,-99.99,,,-99.99,,2013-05-01 19:12:00,
2013-05-01 15:22:00,-999.0,-99.9,30.18,NNE,17,13.0,16.0,-999,-99.99,,,-99.99,,2013-05-01 19:22:00,
2013-05-01 15:32:00,-999.0,-99.9,30.18,NNE,33,8.0,16.0,-999,-99.99,,,-99.99,,2013-05-01 19:32:00,
2013-05-01 15:43:00,71.0,-99.9,30.18,NE,36,11.0,15.0,-999,-99.99,,,-99.99,,2013-05-01 19:43:00,
2013-05-01 15:52:00,70.0,-99.9,30.18,North,-999,-999.0,-999.0,-999,-99.99,,,-99.99,,2013-05-01 19:52:00,
2013-05-01 16:02:00,-999.0,-99.9,30.18,ENE,63,9.0,14.0,-999,-99.99,,,-99.99,,2013-05-01 20:02:00,
2013-05-01 16:11:00,70.0,-99.9,30.18,North,-999,-999.0,-999.0,-999,-99.99,,,-99.99,,2013-05-01 20:11:00,
2013-05-01 16:22:00,70.0,-99.9,30.18,North,-999,-999.0,-999.0,-999,-99.99,,,-99.99,,2013-05-01 20:22:00,
2013-05-01 16:32:00,70.0,-99.9,30.18,North,-999,-999.0,-999.0,-999,-99.99,,,-99.99,,2013-05-01 20:32:00,
2013-05-01 16:42:00,70.0,-99.9,30.18,North,-999,-999.0,-999.0,-999,-99.99,,,-99.99,,2013-05-01 20:42:00,
2013-05-01 16:52:00,70.0,-99.9,30.18,North,-999,-999.0,-999.0,-999,-99.99,,,-99.99,,2013-05-01 20:52:00,
2013-05-01 17:01:00,70.0,-99.9,30.18,North,-999,-999.0,-999.0,-999,-99.99,,,-99.99,,2013-05-01 21:01:00,
2013-05-01 17:11:00,70.0,-99.9,30.19,ENE,74,10.0,14.0,-999,-99.99,,,-99.99,,2013-05-01 21:11:00,
2013-05-01 17:22:00,-999.0,-99.9,30.19,East,80,9.0,14.0,-999,-99.99,,,-99.99,,2013-05-01 21:22:00,
2013-05-01 17:32:00,-999.0,-99.9,30.19,East,87,8.0,12.0,-999,-99.99,,,-99.99,,2013-05-01 21:32:00,
2013-05-01 17:43:00,70.0,-99.9,30.19,North,-999,-999.0,-999.0,-999,-99.99,,,-99.99,,2013-05-01 21:43:00,
2013-05-01 17:53:00,-999.0,-99.9,30.19,ENE,72,10.0,12.0,-999,-99.99,,,-99.99,,2013-05-01 21:53:00,
2013-05-01 18:03:00,-999.0,-99.9,30.20,ENE,75,11.0,18.0,-999,-99.99,,,-99.99,,2013-05-01 22:03:00,
2013-05-01 18:13:00,66.0,-99.9,30.20,ENE,72,11.0,17.0,-999,-99.99,,,-99.99,,2013-05-01 22:13:00,
2013-05-01 18:23:00,66.0,-99.9,30.20,North,-999,-999.0,-999.0,-999,-99.99,,,-99.99,,2013-05-01 22:23:00,
2013-05-01 18:33:00,-999.0,-99.9,30.20,ENE,57,10.0,17.0,-999,-99.99,,,-99.99,,2013-05-01 22:33:00,
2013-05-01 18:42:00,66.0,-99.9,30.20,North,-999,-999.0,-999.0,-999,-99.99,,,-99.99,,2013-05-01 22:42:00,
2013-05-01 18:53:00,65.0,-99.9,30.20,North,-999,-999.0,-999.0,-999,-99.99,,,-99.99,,2013-05-01 22:53:00,
2013-05-01 19:02:00,-999.0,-99.9,30.19,NE,36,8.0,11.0,-999,-99.99,,,-99.99,,2013-05-01 23:02:00,
2013-05-01 19:12:00,65.0,-99.9,30.20,North,-999,-999.0,-999.0,-999,-99.99,,,-99.99,,2013-05-01 23:12:00,
2013-05-01 19:22:00,65.0,-99.9,30.20,North,-999,-999.0,-999.0,-999,-99.99,,,-99.99,,2013-05-01 23:22:00,
2013-05-01 19:32:00,-999.0,-99.9,30.20,NNE,25,8.0,16.0,-999,-99.99,,,-99.99,,2013-05-01 23:32:00,
2013-05-01 19:42:00,65.0,-99.9,30.21,NE,38,10.0,16.0,-999,-99.99,,,-99.99,,2013-05-01 23:42:00,
2013-05-01 19:52:00,65.0,-99.9,30.21,North,-999,-999.0,-999.0,-999,-99.99,,,-99.99,,2013-05-01 23:52:00,
2013-05-01 20:01:00,65.0,-99.9,30.21,North,-999,-999.0,-999.0,-999,-99.99,,,-99.99,,2013-05-02 00:01:00,
2013-05-01 20:11:00,65.0,-99.9,30.21,North,-999,-999.0,-999.0,-999,-99.99,,,-99.99,,2013-05-02 00:11:00,
2013-05-01 20:22:00,65.0,-99.9,30.21,North,-999,-999.0,-999.0,-999,-99.99,,,-99.99,,2013-05-02 00:22:00,
2013-05-01 20:32:00,-999.0,-99.9,30.21,NE,36,8.0,11.0,-999,-99.99,,,-99.99,,2013-05-02 00:32:00,
2013-05-01 20:42:00,65.0,-99.9,30.22,NE,36,8.0,11.0,-999,-99.99,,,-99.99,,2013-05-02 00:42:00,
2013-05-01 20:52:00,65.0,-99.9,30.22,North,-999,-999.0,-999.0,-999,-99.99,,,-99.99,,2013-05-02 00:52:00,
2013-05-01 21:01:00,64.0,-99.9,30.22,North,-999,-999.0,-999.0,-999,-99.99,,,-99.99,,2013-05-02 01:01:00,
2013-05-01 21:11:00,64.0,-99.9,30.22,North,-999,-999.0,-999.0,-999,-99.99,,,-99.99,,2013-05-02 01:11:00,
2013-05-01 21:22:00,64.0,-99.9,30.23,North,-999,-999.0,-999.0,-999,-99.99,,,-99.99,,2013-05-02 01:22:00,
2013-05-01 21:32:00,-999.0,-99.9,30.23,NNE,33,10.0,15.0,-999,-99.99,,,-99.99,,2013-05-02 01:32:00,
2013-05-01 21:42:00,64.0,-99.9,30.23,North,-999,-999.0,-999.0,-999,-99.99,,,-99.99,,2013-05-02 01:42:00,
2013-05-01 21:52:00,64.0,-99.9,30.24,North,-999,-999.0,-999.0,-999,-99.99,,,-99.99,,2013-05-02 01:52:00,
2013-05-01 22:02:00,64.0,-99.9,30.25,North,-999,-999.0,-999.0,-999,-99.99,,,-99.99,,2013-05-02 02:02:00,
2013-05-01 22:12:00,64.0,-99.9,30.25,NE,37,10.0,14.0,-999,-99.99,,,-99.99,,2013-05-02 02:12:00,
2013-05-01 22:22:00,64.0,-99.9,30.25,North,-999,-999.0,-999.0,-999,-99.99,,,-99.99,,2013-05-02 02:22:00,
2013-05-01 22:32:00,64.0,-99.9,30.26,North,-999,-999.0,-999.0,-999,-99.99,,,-99.99,,2013-05-02 02:32:00,
2013-05-01 22:42:00,64.0,-99.9,30.26,North,-999,-999.0,-999.0,-999,-99.99,,,-99.99,,2013-05-02 02:42:00,
2013-05-01 22:52:00,64.0,-99.9,30.26,North,-999,-999.0,-999.0,-999,-99.99,,,-99.99,,2013-05-02 02:52:00,
2013-05-01 23:01:00,-999.0,-99.9,30.26,NE,41,7.0,13.0,-999,-99.99,,,-99.99,,2013-05-02 03:01:00,
2013-05-01 23:11:00,63.0,-99.9,30.25,NE,36,11.0,15.0,-999,-99.99,,,-99.99,,2013-05-02 03:11:00,
2013-05-01 23:22:00,63.0,-99.9,30.26,North,-999,-999.0,-999.0,-999,-99.99,,,-99.99,,2013-05-02 03:22:00,
2013-05-01 23:33:00,-999.0,-99.9,30.26,NE,44,10.0,13.0,-999,-99.99,,,-99.99,,2013-05-02 03:33:00,
2013-05-01 23:43:00,63.0,-99.9,30.26,North,-999,-999.0,-999.0,-999,-99.99,,,-99.99,,2013-05-02 03:43:00,
2013-05-01 23:53:00,-999.0,-99.9,30.25,NNE,24,9.0,15.0,-999,-99.99,,,-99.99,,2013-05-02 03:53:00,